sensor_id;sensor_type;location;lat;lon;timestamp;pressure;altitude;pressure_sealevel;temperature;humidity
11041;BME280;5573;49.592;8.662;2023-07-08T00:00:14;99885.94;;;22.83;31.69
11041;BME280;5573;49.592;8.662;2023-07-08T00:02:46;99862.59;;;22.82;31.69
11041;BME280;5573;49.592;8.662;2023-07-08T00:05:16;99868.81;;;23.06;31.62
11041;BME280;5573;49.592;8.662;2023-07-08T00:07:45;99875.13;;;22.78;32.95
11041;BME280;5573;49.592;8.662;2023-07-08T00:10:16;99871.00;;;22.57;33.32
11041;BME280;5573;49.592;8.662;2023-07-08T00:12:47;99877.06;;;22.49;33.49
11041;BME280;5573;49.592;8.662;2023-07-08T00:15:16;99861.75;;;22.34;33.91
11041;BME280;5573;49.592;8.662;2023-07-08T00:17:44;99869.25;;;22.42;33.29
11041;BME280;5573;49.592;8.662;2023-07-08T00:20:16;99850.66;;;22.31;33.27
11041;BME280;5573;49.592;8.662;2023-07-08T00:22:45;99847.28;;;22.44;32.62
11041;BME280;5573;49.592;8.662;2023-07-08T00:25:18;99855.47;;;22.39;33.23
11041;BME280;5573;49.592;8.662;2023-07-08T00:27:46;99853.31;;;22.36;33.06
11041;BME280;5573;49.592;8.662;2023-07-08T00:30:20;99856.53;;;22.38;33.18
11041;BME280;5573;49.592;8.662;2023-07-08T00:32:49;99825.78;;;22.18;33.27
11041;BME280;5573;49.592;8.662;2023-07-08T00:35:21;99852.75;;;22.39;32.76
11041;BME280;5573;49.592;8.662;2023-07-08T00:37:51;99854.72;;;22.33;33.17
11041;BME280;5573;49.592;8.662;2023-07-08T00:40:22;99850.53;;;22.17;34.33
11041;BME280;5573;49.592;8.662;2023-07-08T00:42:52;99847.19;;;22.25;33.04
11041;BME280;5573;49.592;8.662;2023-07-08T00:45:37;99847.53;;;22.42;32.28
11041;BME280;5573;49.592;8.662;2023-07-08T00:48:30;99855.97;;;22.41;32.85
11041;BME280;5573;49.592;8.662;2023-07-08T00:51:01;99849.88;;;22.54;32.08
11041;BME280;5573;49.592;8.662;2023-07-08T00:53:31;99861.22;;;22.56;32.33
11041;BME280;5573;49.592;8.662;2023-07-08T00:56:03;99860.16;;;22.57;31.79
11041;BME280;5573;49.592;8.662;2023-07-08T00:58:34;99859.22;;;22.43;32.88
11041;BME280;5573;49.592;8.662;2023-07-08T01:01:05;99860.88;;;22.39;32.90
11041;BME280;5573;49.592;8.662;2023-07-08T01:03:45;99861.03;;;22.23;33.82
11041;BME280;5573;49.592;8.662;2023-07-08T01:06:16;99867.69;;;22.07;34.25
11041;BME280;5573;49.592;8.662;2023-07-08T01:08:45;99861.25;;;22.03;33.73
11041;BME280;5573;49.592;8.662;2023-07-08T01:11:15;99873.25;;;21.92;34.45
11041;BME280;5573;49.592;8.662;2023-07-08T01:13:44;99871.13;;;21.84;34.55
11041;BME280;5573;49.592;8.662;2023-07-08T01:16:13;99877.13;;;21.81;35.51
11041;BME280;5573;49.592;8.662;2023-07-08T01:18:43;99868.88;;;21.57;36.01
11041;BME280;5573;49.592;8.662;2023-07-08T01:21:31;99863.78;;;21.46;36.64
11041;BME280;5573;49.592;8.662;2023-07-08T01:24:04;99869.28;;;21.36;36.83
11041;BME280;5573;49.592;8.662;2023-07-08T01:26:34;99859.09;;;21.17;37.37
11041;BME280;5573;49.592;8.662;2023-07-08T01:29:03;99866.13;;;21.08;38.13
11041;BME280;5573;49.592;8.662;2023-07-08T01:31:31;99868.59;;;21.00;38.21
11041;BME280;5573;49.592;8.662;2023-07-08T01:33:59;99868.91;;;20.93;38.05
11041;BME280;5573;49.592;8.662;2023-07-08T01:36:30;99870.03;;;20.82;38.63
11041;BME280;5573;49.592;8.662;2023-07-08T01:38:59;99863.59;;;20.68;39.88
11041;BME280;5573;49.592;8.662;2023-07-08T01:41:29;99861.75;;;20.48;40.58
11041;BME280;5573;49.592;8.662;2023-07-08T01:43:57;99864.75;;;20.26;41.66
11041;BME280;5573;49.592;8.662;2023-07-08T01:46:26;99866.66;;;20.11;42.37
11041;BME280;5573;49.592;8.662;2023-07-08T01:48:57;99864.75;;;19.96;42.90
11041;BME280;5573;49.592;8.662;2023-07-08T01:51:27;99866.91;;;19.84;42.20
11041;BME280;5573;49.592;8.662;2023-07-08T01:53:56;99876.09;;;19.73;42.31
11041;BME280;5573;49.592;8.662;2023-07-08T01:56:24;99867.75;;;19.79;40.43
11041;BME280;5573;49.592;8.662;2023-07-08T01:58:53;99864.22;;;19.79;41.92
11041;BME280;5573;49.592;8.662;2023-07-08T02:01:21;99870.16;;;19.66;42.38
11041;BME280;5573;49.592;8.662;2023-07-08T02:03:49;99868.50;;;19.55;42.44
11041;BME280;5573;49.592;8.662;2023-07-08T02:06:19;99862.50;;;19.37;44.16
11041;BME280;5573;49.592;8.662;2023-07-08T02:08:47;99861.75;;;19.42;44.05
11041;BME280;5573;49.592;8.662;2023-07-08T02:11:17;99852.19;;;19.14;45.64
11041;BME280;5573;49.592;8.662;2023-07-08T02:13:44;99847.56;;;19.10;45.94
11041;BME280;5573;49.592;8.662;2023-07-08T02:16:14;99859.66;;;18.92;46.73
11041;BME280;5573;49.592;8.662;2023-07-08T02:18:41;99846.19;;;18.87;46.06
11041;BME280;5573;49.592;8.662;2023-07-08T02:21:10;99838.00;;;18.77;46.52
11041;BME280;5573;49.592;8.662;2023-07-08T02:23:39;99830.66;;;18.57;46.30
11041;BME280;5573;49.592;8.662;2023-07-08T02:26:07;99844.97;;;18.63;46.64
11041;BME280;5573;49.592;8.662;2023-07-08T02:28:35;99836.38;;;18.76;44.48
11041;BME280;5573;49.592;8.662;2023-07-08T02:31:03;99838.50;;;18.64;46.55
11041;BME280;5573;49.592;8.662;2023-07-08T02:33:32;99828.75;;;18.53;47.24
11041;BME280;5573;49.592;8.662;2023-07-08T02:36:00;99838.94;;;18.51;47.47
11041;BME280;5573;49.592;8.662;2023-07-08T02:38:28;99834.56;;;18.39;48.49
11041;BME280;5573;49.592;8.662;2023-07-08T02:40:56;99844.75;;;18.32;48.57
11041;BME280;5573;49.592;8.662;2023-07-08T02:43:25;99814.63;;;17.99;48.30
11041;BME280;5573;49.592;8.662;2023-07-08T02:45:53;99854.63;;;18.12;49.34
11041;BME280;5573;49.592;8.662;2023-07-08T02:48:21;99851.94;;;18.17;47.79
11041;BME280;5573;49.592;8.662;2023-07-08T02:50:50;99853.81;;;18.11;49.42
11041;BME280;5573;49.592;8.662;2023-07-08T02:53:18;99860.81;;;18.12;47.73
11041;BME280;5573;49.592;8.662;2023-07-08T02:55:46;99860.31;;;18.20;47.05
11041;BME280;5573;49.592;8.662;2023-07-08T02:58:15;99864.13;;;18.24;48.45
11041;BME280;5573;49.592;8.662;2023-07-08T03:00:43;99857.66;;;18.25;47.49
11041;BME280;5573;49.592;8.662;2023-07-08T03:03:11;99868.63;;;18.14;49.27
11041;BME280;5573;49.592;8.662;2023-07-08T03:05:39;99864.81;;;18.05;47.89
11041;BME280;5573;49.592;8.662;2023-07-08T03:08:08;99864.75;;;18.00;48.70
11041;BME280;5573;49.592;8.662;2023-07-08T03:10:36;99855.84;;;17.99;47.23
11041;BME280;5573;49.592;8.662;2023-07-08T03:13:03;99871.78;;;18.01;48.77
11041;BME280;5573;49.592;8.662;2023-07-08T03:15:31;99864.22;;;17.98;48.72
11041;BME280;5573;49.592;8.662;2023-07-08T03:17:59;99871.81;;;18.06;47.98
11041;BME280;5573;49.592;8.662;2023-07-08T03:20:28;99870.69;;;18.02;48.21
11041;BME280;5573;49.592;8.662;2023-07-08T03:22:59;99868.81;;;18.02;48.90
11041;BME280;5573;49.592;8.662;2023-07-08T03:25:28;99867.41;;;17.94;49.37
11041;BME280;5573;49.592;8.662;2023-07-08T03:27:56;99873.63;;;17.95;48.76
11041;BME280;5573;49.592;8.662;2023-07-08T03:30:26;99871.50;;;17.97;48.84
11041;BME280;5573;49.592;8.662;2023-07-08T03:32:54;99877.13;;;17.96;49.38
11041;BME280;5573;49.592;8.662;2023-07-08T03:35:22;99881.09;;;17.88;49.25
11041;BME280;5573;49.592;8.662;2023-07-08T03:37:50;99888.16;;;17.94;49.47
11041;BME280;5573;49.592;8.662;2023-07-08T03:40:18;99879.06;;;18.05;47.98
11041;BME280;5573;49.592;8.662;2023-07-08T03:42:48;99892.53;;;18.00;48.96
11041;BME280;5573;49.592;8.662;2023-07-08T03:45:16;99886.03;;;17.96;49.04
11041;BME280;5573;49.592;8.662;2023-07-08T03:47:45;99889.84;;;18.00;49.26
11041;BME280;5573;49.592;8.662;2023-07-08T03:50:18;99896.28;;;17.99;50.17
11041;BME280;5573;49.592;8.662;2023-07-08T03:52:46;99871.22;;;17.99;49.59
11041;BME280;5573;49.592;8.662;2023-07-08T03:55:15;99885.19;;;18.27;48.94
11041;BME280;5573;49.592;8.662;2023-07-08T03:57:43;99881.50;;;18.38;48.68
11041;BME280;5573;49.592;8.662;2023-07-08T04:00:13;99889.66;;;18.49;48.86
11041;BME280;5573;49.592;8.662;2023-07-08T04:02:42;99880.25;;;18.51;49.34
11041;BME280;5573;49.592;8.662;2023-07-08T04:05:17;99882.69;;;18.53;49.02
11041;BME280;5573;49.592;8.662;2023-07-08T04:07:46;99872.25;;;18.66;49.76
11041;BME280;5573;49.592;8.662;2023-07-08T04:10:14;99880.38;;;18.71;49.62
11041;BME280;5573;49.592;8.662;2023-07-08T04:12:43;99879.28;;;18.67;50.49
11041;BME280;5573;49.592;8.662;2023-07-08T04:15:12;99882.75;;;18.63;50.51
11041;BME280;5573;49.592;8.662;2023-07-08T04:17:43;99877.63;;;18.66;50.19
11041;BME280;5573;49.592;8.662;2023-07-08T04:20:13;99875.75;;;18.67;50.06
11041;BME280;5573;49.592;8.662;2023-07-08T04:22:41;99873.38;;;18.75;50.13
11041;BME280;5573;49.592;8.662;2023-07-08T04:25:10;99877.47;;;18.88;49.99
11041;BME280;5573;49.592;8.662;2023-07-08T04:27:38;99873.19;;;18.97;48.97
11041;BME280;5573;49.592;8.662;2023-07-08T04:30:09;99876.50;;;19.09;48.03
11041;BME280;5573;49.592;8.662;2023-07-08T04:32:43;99871.09;;;19.09;49.79
11041;BME280;5573;49.592;8.662;2023-07-08T04:35:11;99877.56;;;19.08;49.73
11041;BME280;5573;49.592;8.662;2023-07-08T04:37:39;99872.41;;;19.07;49.43
11041;BME280;5573;49.592;8.662;2023-07-08T04:40:16;99873.25;;;19.12;50.26
11041;BME280;5573;49.592;8.662;2023-07-08T04:42:43;99879.75;;;19.21;48.70
11041;BME280;5573;49.592;8.662;2023-07-08T04:45:15;99881.75;;;19.46;48.29
11041;BME280;5573;49.592;8.662;2023-07-08T04:47:45;99872.28;;;19.44;49.69
11041;BME280;5573;49.592;8.662;2023-07-08T04:50:20;99883.66;;;19.46;50.26
11041;BME280;5573;49.592;8.662;2023-07-08T04:52:48;99882.84;;;19.60;49.61
11041;BME280;5573;49.592;8.662;2023-07-08T04:55:17;99879.88;;;19.67;48.15
11041;BME280;5573;49.592;8.662;2023-07-08T04:57:45;99888.28;;;19.80;47.73
11041;BME280;5573;49.592;8.662;2023-07-08T05:00:15;99882.06;;;19.95;47.28
11041;BME280;5573;49.592;8.662;2023-07-08T05:02:45;99892.88;;;20.20;45.93
11041;BME280;5573;49.592;8.662;2023-07-08T05:05:13;99885.31;;;20.38;47.19
11041;BME280;5573;49.592;8.662;2023-07-08T05:07:41;99889.63;;;20.49;49.14
11041;BME280;5573;49.592;8.662;2023-07-08T05:10:09;99882.53;;;20.68;49.15
11041;BME280;5573;49.592;8.662;2023-07-08T05:12:37;99884.03;;;20.99;47.18
11041;BME280;5573;49.592;8.662;2023-07-08T05:15:06;99885.91;;;21.09;48.61
11041;BME280;5573;49.592;8.662;2023-07-08T05:17:34;99891.34;;;21.14;49.35
11041;BME280;5573;49.592;8.662;2023-07-08T05:20:05;99890.22;;;21.25;47.30
11041;BME280;5573;49.592;8.662;2023-07-08T05:22:34;99886.31;;;21.41;47.68
11041;BME280;5573;49.592;8.662;2023-07-08T05:25:03;99893.84;;;21.49;49.33
11041;BME280;5573;49.592;8.662;2023-07-08T05:27:31;99886.38;;;21.70;47.56
11041;BME280;5573;49.592;8.662;2023-07-08T05:30:00;99908.22;;;21.89;47.83
11041;BME280;5573;49.592;8.662;2023-07-08T05:32:28;99911.97;;;22.03;47.97
11041;BME280;5573;49.592;8.662;2023-07-08T05:34:56;99912.47;;;22.39;43.71
11041;BME280;5573;49.592;8.662;2023-07-08T05:37:26;99914.09;;;22.92;41.99
11041;BME280;5573;49.592;8.662;2023-07-08T05:39:55;99915.34;;;23.24;43.07
11041;BME280;5573;49.592;8.662;2023-07-08T05:42:23;99916.88;;;23.53;45.10
11041;BME280;5573;49.592;8.662;2023-07-08T05:44:50;99930.19;;;23.55;42.64
11041;BME280;5573;49.592;8.662;2023-07-08T05:47:18;99934.66;;;23.64;38.29
11041;BME280;5573;49.592;8.662;2023-07-08T05:49:46;99942.59;;;23.98;39.55
11041;BME280;5573;49.592;8.662;2023-07-08T05:52:14;99950.75;;;23.98;41.57
11041;BME280;5573;49.592;8.662;2023-07-08T05:54:43;99951.13;;;23.92;42.37
11041;BME280;5573;49.592;8.662;2023-07-08T05:57:13;99945.47;;;23.88;44.51
11041;BME280;5573;49.592;8.662;2023-07-08T05:59:41;99963.22;;;23.86;45.40
11041;BME280;5573;49.592;8.662;2023-07-08T06:02:10;99965.78;;;23.77;46.44
11041;BME280;5573;49.592;8.662;2023-07-08T06:04:39;99969.66;;;23.71;46.85
11041;BME280;5573;49.592;8.662;2023-07-08T06:07:07;99972.44;;;23.47;46.90
11041;BME280;5573;49.592;8.662;2023-07-08T06:09:35;99975.31;;;23.32;47.79
11041;BME280;5573;49.592;8.662;2023-07-08T06:12:04;99997.03;;;23.08;48.29
11041;BME280;5573;49.592;8.662;2023-07-08T06:14:32;100017.50;;;23.01;48.46
11041;BME280;5573;49.592;8.662;2023-07-08T06:17:00;100017.59;;;22.96;48.66
11041;BME280;5573;49.592;8.662;2023-07-08T06:19:28;100025.03;;;22.85;49.16
11041;BME280;5573;49.592;8.662;2023-07-08T06:21:56;100036.44;;;22.82;48.98
11041;BME280;5573;49.592;8.662;2023-07-08T06:24:44;100030.59;;;22.70;49.42
11041;BME280;5573;49.592;8.662;2023-07-08T06:27:15;100031.75;;;22.59;50.00
11041;BME280;5573;49.592;8.662;2023-07-08T06:29:42;100036.59;;;22.62;50.86
11041;BME280;5573;49.592;8.662;2023-07-08T06:32:11;100036.28;;;22.68;50.75
11041;BME280;5573;49.592;8.662;2023-07-08T06:34:39;100033.81;;;22.67;50.90
11041;BME280;5573;49.592;8.662;2023-07-08T06:37:07;100029.88;;;22.88;49.99
11041;BME280;5573;49.592;8.662;2023-07-08T06:39:35;100019.31;;;23.34;48.47
11041;BME280;5573;49.592;8.662;2023-07-08T06:42:06;100005.25;;;23.93;42.97
11041;BME280;5573;49.592;8.662;2023-07-08T06:44:40;100007.66;;;24.51;38.72
11041;BME280;5573;49.592;8.662;2023-07-08T06:47:12;100009.50;;;25.01;36.27
11041;BME280;5573;49.592;8.662;2023-07-08T06:49:40;100006.97;;;24.91;37.90
11041;BME280;5573;49.592;8.662;2023-07-08T06:52:08;99998.81;;;25.32;35.96
11041;BME280;5573;49.592;8.662;2023-07-08T06:54:35;99992.69;;;25.54;34.34
11041;BME280;5573;49.592;8.662;2023-07-08T06:57:05;99990.72;;;25.82;33.26
11041;BME280;5573;49.592;8.662;2023-07-08T06:59:33;99982.34;;;25.78;34.06
11041;BME280;5573;49.592;8.662;2023-07-08T07:02:03;99986.53;;;26.34;32.96
11041;BME280;5573;49.592;8.662;2023-07-08T07:04:31;99988.84;;;26.71;33.34
11041;BME280;5573;49.592;8.662;2023-07-08T07:06:59;99985.13;;;27.37;33.62
11041;BME280;5573;49.592;8.662;2023-07-08T07:09:26;99992.34;;;27.90;32.34
11041;BME280;5573;49.592;8.662;2023-07-08T07:11:54;99998.91;;;28.66;31.12
11041;BME280;5573;49.592;8.662;2023-07-08T07:14:22;99993.66;;;28.35;31.53
11041;BME280;5573;49.592;8.662;2023-07-08T07:16:53;100002.97;;;28.60;31.35
11041;BME280;5573;49.592;8.662;2023-07-08T07:19:35;99998.59;;;27.73;32.11
11041;BME280;5573;49.592;8.662;2023-07-08T07:22:04;99996.34;;;26.88;32.82
11041;BME280;5573;49.592;8.662;2023-07-08T07:24:32;99994.59;;;26.61;33.38
11041;BME280;5573;49.592;8.662;2023-07-08T07:27:00;100005.59;;;26.78;33.14
11041;BME280;5573;49.592;8.662;2023-07-08T07:29:28;100010.84;;;27.28;33.18
11041;BME280;5573;49.592;8.662;2023-07-08T07:31:55;100026.75;;;27.26;32.13
11041;BME280;5573;49.592;8.662;2023-07-08T07:34:23;100031.34;;;26.55;33.17
11041;BME280;5573;49.592;8.662;2023-07-08T07:36:53;100040.44;;;25.92;34.81
11041;BME280;5573;49.592;8.662;2023-07-08T07:39:24;100039.81;;;25.95;34.83
11041;BME280;5573;49.592;8.662;2023-07-08T07:41:51;100027.94;;;25.64;36.01
11041;BME280;5573;49.592;8.662;2023-07-08T07:44:19;100033.19;;;25.33;35.44
11041;BME280;5573;49.592;8.662;2023-07-08T07:46:47;100039.00;;;25.13;36.24
11041;BME280;5573;49.592;8.662;2023-07-08T07:49:16;100045.78;;;25.29;37.04
11041;BME280;5573;49.592;8.662;2023-07-08T07:51:43;100041.34;;;25.47;37.50
11041;BME280;5573;49.592;8.662;2023-07-08T07:54:12;100045.53;;;25.58;37.81
11041;BME280;5573;49.592;8.662;2023-07-08T07:56:40;100047.53;;;26.74;35.30
11041;BME280;5573;49.592;8.662;2023-07-08T07:59:08;100056.38;;;27.24;34.92
11041;BME280;5573;49.592;8.662;2023-07-08T08:01:35;100066.34;;;28.33;32.88
11041;BME280;5573;49.592;8.662;2023-07-08T08:04:04;100058.09;;;27.99;34.25
11041;BME280;5573;49.592;8.662;2023-07-08T08:06:32;100081.28;;;28.01;33.98
11041;BME280;5573;49.592;8.662;2023-07-08T08:09:00;100071.19;;;28.53;33.44
11041;BME280;5573;49.592;8.662;2023-07-08T08:11:29;100067.47;;;28.49;33.55
11041;BME280;5573;49.592;8.662;2023-07-08T08:13:57;100075.78;;;27.92;34.38
11041;BME280;5573;49.592;8.662;2023-07-08T08:16:25;100085.91;;;27.92;34.56
11041;BME280;5573;49.592;8.662;2023-07-08T08:18:53;100085.69;;;28.71;33.99
11041;BME280;5573;49.592;8.662;2023-07-08T08:21:20;100084.72;;;28.50;33.93
11041;BME280;5573;49.592;8.662;2023-07-08T08:23:49;100082.25;;;28.05;35.06
11041;BME280;5573;49.592;8.662;2023-07-08T08:26:16;100096.41;;;27.99;36.19
11041;BME280;5573;49.592;8.662;2023-07-08T08:28:46;100084.56;;;28.20;36.18
11041;BME280;5573;49.592;8.662;2023-07-08T08:31:13;100083.44;;;28.47;35.47
11041;BME280;5573;49.592;8.662;2023-07-08T08:33:42;100084.72;;;28.24;35.62
11041;BME280;5573;49.592;8.662;2023-07-08T08:36:09;100091.28;;;28.06;35.60
11041;BME280;5573;49.592;8.662;2023-07-08T08:38:37;100088.97;;;27.99;36.32
11041;BME280;5573;49.592;8.662;2023-07-08T08:41:10;100086.88;;;27.79;36.36
11041;BME280;5573;49.592;8.662;2023-07-08T08:43:40;100086.50;;;27.02;37.56
11041;BME280;5573;49.592;8.662;2023-07-08T08:46:16;100089.63;;;26.86;39.32
11041;BME280;5573;49.592;8.662;2023-07-08T08:48:51;100091.78;;;26.98;38.72
11041;BME280;5573;49.592;8.662;2023-07-08T08:51:21;100087.63;;;27.00;38.30
11041;BME280;5573;49.592;8.662;2023-07-08T08:53:53;100089.91;;;27.38;37.92
11041;BME280;5573;49.592;8.662;2023-07-08T08:56:25;100080.06;;;27.37;37.34
11041;BME280;5573;49.592;8.662;2023-07-08T08:58:59;100081.34;;;27.70;37.71
11041;BME280;5573;49.592;8.662;2023-07-08T09:01:30;100080.38;;;27.58;38.09
11041;BME280;5573;49.592;8.662;2023-07-08T09:04:01;100094.78;;;27.80;37.31
11041;BME280;5573;49.592;8.662;2023-07-08T09:06:32;100092.88;;;27.98;37.57
11041;BME280;5573;49.592;8.662;2023-07-08T09:09:03;100089.72;;;28.13;37.01
11041;BME280;5573;49.592;8.662;2023-07-08T09:11:42;100082.91;;;28.02;36.89
11041;BME280;5573;49.592;8.662;2023-07-08T09:14:15;100078.44;;;28.23;37.26
11041;BME280;5573;49.592;8.662;2023-07-08T09:16:49;100075.38;;;28.42;36.72
11041;BME280;5573;49.592;8.662;2023-07-08T09:19:23;100080.06;;;28.24;36.66
11041;BME280;5573;49.592;8.662;2023-07-08T09:21:57;100073.13;;;28.27;36.75
11041;BME280;5573;49.592;8.662;2023-07-08T09:24:40;100075.84;;;28.27;35.88
11041;BME280;5573;49.592;8.662;2023-07-08T09:27:09;100074.56;;;28.24;37.53
11041;BME280;5573;49.592;8.662;2023-07-08T09:29:37;100071.31;;;28.48;36.16
11041;BME280;5573;49.592;8.662;2023-07-08T09:32:15;100044.59;;;28.28;36.34
11041;BME280;5573;49.592;8.662;2023-07-08T09:34:46;100067.16;;;28.16;36.82
11041;BME280;5573;49.592;8.662;2023-07-08T09:37:25;100064.09;;;28.35;36.54
11041;BME280;5573;49.592;8.662;2023-07-08T09:39:55;100057.63;;;28.57;36.00
11041;BME280;5573;49.592;8.662;2023-07-08T09:42:25;100062.13;;;28.78;35.72
11041;BME280;5573;49.592;8.662;2023-07-08T09:44:56;100064.25;;;28.73;35.84
11041;BME280;5573;49.592;8.662;2023-07-08T09:47:27;100063.44;;;28.72;34.69
11041;BME280;5573;49.592;8.662;2023-07-08T09:49:58;100037.59;;;28.90;35.58
11041;BME280;5573;49.592;8.662;2023-07-08T09:52:29;100056.19;;;29.23;35.45
11041;BME280;5573;49.592;8.662;2023-07-08T09:54:58;100059.28;;;29.59;33.71
11041;BME280;5573;49.592;8.662;2023-07-08T09:57:28;100060.09;;;29.60;34.04
11041;BME280;5573;49.592;8.662;2023-07-08T10:00:00;100055.66;;;29.47;33.86
11041;BME280;5573;49.592;8.662;2023-07-08T10:02:38;100067.63;;;29.71;32.84
11041;BME280;5573;49.592;8.662;2023-07-08T10:05:14;100054.00;;;29.83;32.47
11041;BME280;5573;49.592;8.662;2023-07-08T10:07:44;100056.94;;;29.78;33.70
11041;BME280;5573;49.592;8.662;2023-07-08T10:10:15;100063.38;;;29.82;33.75
11041;BME280;5573;49.592;8.662;2023-07-08T10:12:52;100033.31;;;29.57;33.72
11041;BME280;5573;49.592;8.662;2023-07-08T10:15:31;100056.72;;;29.92;32.96
11041;BME280;5573;49.592;8.662;2023-07-08T10:18:01;100056.50;;;29.97;34.37
11041;BME280;5573;49.592;8.662;2023-07-08T10:20:37;100044.69;;;30.26;33.72
11041;BME280;5573;49.592;8.662;2023-07-08T10:23:14;100045.19;;;30.19;34.04
11041;BME280;5573;49.592;8.662;2023-07-08T10:25:51;100051.91;;;30.10;33.82
11041;BME280;5573;49.592;8.662;2023-07-08T10:28:31;100054.13;;;29.96;34.35
11041;BME280;5573;49.592;8.662;2023-07-08T10:31:12;100047.69;;;30.33;33.08
11041;BME280;5573;49.592;8.662;2023-07-08T10:33:55;100047.00;;;30.36;33.11
11041;BME280;5573;49.592;8.662;2023-07-08T10:36:37;100047.31;;;30.43;33.41
11041;BME280;5573;49.592;8.662;2023-07-08T10:42:04;100053.28;;;30.78;32.76
11041;BME280;5573;49.592;8.662;2023-07-08T10:44:38;100052.38;;;31.19;31.93
11041;BME280;5573;49.592;8.662;2023-07-08T10:47:19;100047.78;;;30.78;31.88
11041;BME280;5573;49.592;8.662;2023-07-08T10:49:59;100047.19;;;30.72;32.37
11041;BME280;5573;49.592;8.662;2023-07-08T10:52:42;100035.66;;;30.91;32.16
11041;BME280;5573;49.592;8.662;2023-07-08T10:55:30;100035.59;;;31.00;31.40
11041;BME280;5573;49.592;8.662;2023-07-08T10:58:13;100038.53;;;30.95;31.37
11041;BME280;5573;49.592;8.662;2023-07-08T11:00:49;100028.41;;;30.74;32.91
11041;BME280;5573;49.592;8.662;2023-07-08T11:03:46;100026.22;;;31.25;32.22
11041;BME280;5573;49.592;8.662;2023-07-08T11:06:22;100035.38;;;31.17;32.61
11041;BME280;5573;49.592;8.662;2023-07-08T11:08:55;100032.75;;;31.33;31.83
11041;BME280;5573;49.592;8.662;2023-07-08T11:11:32;100037.34;;;31.41;31.88
11041;BME280;5573;49.592;8.662;2023-07-08T11:14:15;100025.88;;;31.39;31.52
11041;BME280;5573;49.592;8.662;2023-07-08T11:16:47;100029.53;;;31.31;31.96
11041;BME280;5573;49.592;8.662;2023-07-08T11:19:25;100025.88;;;31.39;30.78
11041;BME280;5573;49.592;8.662;2023-07-08T11:21:57;100020.72;;;31.37;32.09
11041;BME280;5573;49.592;8.662;2023-07-08T11:24:32;100026.66;;;31.88;31.94
11041;BME280;5573;49.592;8.662;2023-07-08T11:27:06;100012.78;;;31.72;31.25
11041;BME280;5573;49.592;8.662;2023-07-08T11:29:37;100006.25;;;31.64;30.75
11041;BME280;5573;49.592;8.662;2023-07-08T11:32:08;100013.91;;;31.83;30.26
11041;BME280;5573;49.592;8.662;2023-07-08T11:34:41;100005.63;;;31.95;30.08
11041;BME280;5573;49.592;8.662;2023-07-08T11:37:12;100007.19;;;32.20;30.35
11041;BME280;5573;49.592;8.662;2023-07-08T11:39:41;100008.25;;;32.04;29.72
11041;BME280;5573;49.592;8.662;2023-07-08T11:42:15;100011.00;;;32.04;29.33
11041;BME280;5573;49.592;8.662;2023-07-08T11:44:48;100008.59;;;32.14;30.17
11041;BME280;5573;49.592;8.662;2023-07-08T11:47:22;100010.09;;;32.40;29.85
11041;BME280;5573;49.592;8.662;2023-07-08T11:49:52;100014.22;;;32.18;29.43
11041;BME280;5573;49.592;8.662;2023-07-08T11:52:23;100007.75;;;32.26;29.91
11041;BME280;5573;49.592;8.662;2023-07-08T11:54:56;99999.81;;;32.52;28.75
11041;BME280;5573;49.592;8.662;2023-07-08T11:57:29;100000.47;;;32.61;29.21
11041;BME280;5573;49.592;8.662;2023-07-08T12:00:16;99995.69;;;32.46;30.05
11041;BME280;5573;49.592;8.662;2023-07-08T12:02:51;99997.56;;;32.42;29.50
11041;BME280;5573;49.592;8.662;2023-07-08T12:05:29;99989.75;;;32.44;28.57
11041;BME280;5573;49.592;8.662;2023-07-08T12:08:00;99990.84;;;32.28;29.15
11041;BME280;5573;49.592;8.662;2023-07-08T12:10:34;99992.66;;;32.36;29.63
11041;BME280;5573;49.592;8.662;2023-07-08T12:13:09;99988.78;;;32.52;29.06
11041;BME280;5573;49.592;8.662;2023-07-08T12:15:38;99990.63;;;32.60;28.49
11041;BME280;5573;49.592;8.662;2023-07-08T12:18:12;99993.03;;;32.50;28.57
11041;BME280;5573;49.592;8.662;2023-07-08T12:20:42;99981.25;;;32.65;27.59
11041;BME280;5573;49.592;8.662;2023-07-08T12:23:14;99984.91;;;32.69;27.90
11041;BME280;5573;49.592;8.662;2023-07-08T12:25:42;99975.75;;;32.65;27.85
11041;BME280;5573;49.592;8.662;2023-07-08T12:28:11;99985.81;;;32.73;28.18
11041;BME280;5573;49.592;8.662;2023-07-08T12:30:41;99987.34;;;33.02;27.90
11041;BME280;5573;49.592;8.662;2023-07-08T12:33:12;99974.03;;;33.20;27.87
11041;BME280;5573;49.592;8.662;2023-07-08T12:35:42;99977.13;;;33.34;27.72
11041;BME280;5573;49.592;8.662;2023-07-08T12:38:18;99979.00;;;33.14;27.50
11041;BME280;5573;49.592;8.662;2023-07-08T12:40:48;99970.50;;;32.91;27.64
11041;BME280;5573;49.592;8.662;2023-07-08T12:43:16;99970.19;;;33.08;27.75
11041;BME280;5573;49.592;8.662;2023-07-08T12:45:45;99966.63;;;33.24;28.16
11041;BME280;5573;49.592;8.662;2023-07-08T12:48:12;99977.94;;;33.34;27.74
11041;BME280;5573;49.592;8.662;2023-07-08T12:50:40;99985.47;;;33.53;27.14
11041;BME280;5573;49.592;8.662;2023-07-08T12:53:10;99979.47;;;33.67;26.84
11041;BME280;5573;49.592;8.662;2023-07-08T12:55:42;99967.53;;;33.12;27.09
11041;BME280;5573;49.592;8.662;2023-07-08T12:58:13;99962.50;;;33.02;26.85
11041;BME280;5573;49.592;8.662;2023-07-08T13:00:43;99982.22;;;33.16;26.52
11041;BME280;5573;49.592;8.662;2023-07-08T13:03:15;99980.06;;;33.25;26.67
11041;BME280;5573;49.592;8.662;2023-07-08T13:05:45;99975.66;;;33.55;24.78
11041;BME280;5573;49.592;8.662;2023-07-08T13:08:14;99982.72;;;33.37;26.01
11041;BME280;5573;49.592;8.662;2023-07-08T13:10:44;99986.28;;;33.53;25.03
11041;BME280;5573;49.592;8.662;2023-07-08T13:13:17;99984.34;;;33.57;24.92
11041;BME280;5573;49.592;8.662;2023-07-08T13:15:48;99979.41;;;33.32;24.87
11041;BME280;5573;49.592;8.662;2023-07-08T13:18:18;99982.59;;;33.65;25.42
11041;BME280;5573;49.592;8.662;2023-07-08T13:20:50;99982.97;;;33.63;24.51
11041;BME280;5573;49.592;8.662;2023-07-08T13:23:19;99982.41;;;33.58;25.00
11041;BME280;5573;49.592;8.662;2023-07-08T13:25:51;99972.53;;;33.92;24.88
11041;BME280;5573;49.592;8.662;2023-07-08T13:28:23;99981.81;;;33.65;24.49